Time;durP1;ratioP1;P1;durP2;ratioP2;P2;SDS_P1;SDS_P2;PMS_P1;PMS_P2;Temp;Humidity;BMP_temperature;BMP_pressure;BME280_temperature;BME280_humidity;BME280_pressure;Samples;Min_cycle;Max_cycle;Signal;HPM_P1;HPM_P2
2022/01/05 00:00:37;;;;;;;91.28;50.03;;;;;;;;;;5034885;28;20041;-69
2022/01/05 00:03:04;;;;;;;88.57;49.38;;;;;;;;;;5031816;28;20050;-67
2022/01/05 00:05:31;;;;;;;88.30;49.72;;;;;;;;;;5049683;28;20045;-67
2022/01/05 00:07:57;;;;;;;99.95;53.83;;;;;;;;;;5037157;28;20191;-66
2022/01/05 00:10:23;;;;;;;83.32;47.85;;;;;;;;;;5032198;28;20120;-66
2022/01/05 00:12:49;;;;;;;101.70;50.78;;;;;;;;;;5031861;28;20086;-67
2022/01/05 00:15:15;;;;;;;93.70;50.65;;;;;;;;;;5031064;28;20033;-66
2022/01/05 00:17:40;;;;;;;91.30;46.55;;;;;;;;;;5031977;28;20033;-66
2022/01/05 00:20:07;;;;;;;80.93;44.97;;;;;;;;;;5031778;28;20072;-66
2022/01/05 00:22:33;;;;;;;85.78;47.17;;;;;;;;;;5032515;28;20036;-68
2022/01/05 00:24:58;;;;;;;87.00;46.67;;;;;;;;;;5032042;28;20041;-66
2022/01/05 00:27:24;;;;;;;90.18;48.15;;;;;;;;;;5030500;28;20064;-66
2022/01/05 00:29:50;;;;;;;77.97;44.55;;;;;;;;;;5031340;28;20095;-66
2022/01/05 00:32:16;;;;;;;74.95;41.13;;;;;;;;;;5031557;28;20033;-66
2022/01/05 00:34:42;;;;;;;86.07;45.00;;;;;;;;;;5029942;28;20026;-66
2022/01/05 00:37:07;;;;;;;74.13;41.83;;;;;;;;;;5031490;28;20014;-66
2022/01/05 00:39:33;;;;;;;77.25;43.00;;;;;;;;;;5031782;28;20091;-68
2022/01/05 00:41:59;;;;;;;95.45;45.35;;;;;;;;;;5030892;28;20388;-65
2022/01/05 00:44:25;;;;;;;81.80;42.58;;;;;;;;;;5031455;28;20037;-68
2022/01/05 00:46:51;;;;;;;94.40;46.63;;;;;;;;;;5031746;28;20057;-65
2022/01/05 00:49:17;;;;;;;77.05;43.30;;;;;;;;;;5030326;28;20029;-66
2022/01/05 00:51:43;;;;;;;71.50;42.35;;;;;;;;;;5036554;28;20016;-69
2022/01/05 00:54:09;;;;;;;75.40;44.92;;;;;;;;;;5051089;28;20578;-68
2022/01/05 00:56:35;;;;;;;71.00;41.45;;;;;;;;;;5050591;28;20123;-67
2022/01/05 00:59:00;;;;;;;76.07;43.20;;;;;;;;;;5051332;28;20041;-67
2022/01/05 01:01:26;;;;;;;67.30;39.95;;;;;;;;;;5051133;28;20033;-66
2022/01/05 01:03:52;;;;;;;81.50;44.65;;;;;;;;;;5050858;28;20033;-68
2022/01/05 01:06:18;;;;;;;81.05;44.90;;;;;;;;;;5051117;28;20483;-70
2022/01/05 01:08:44;;;;;;;95.80;47.35;;;;;;;;;;5051146;28;20025;-67
2022/01/05 01:11:10;;;;;;;79.75;43.63;;;;;;;;;;5050652;28;20445;-67
2022/01/05 01:13:35;;;;;;;80.38;42.15;;;;;;;;;;5049668;28;20554;-68
2022/01/05 01:16:02;;;;;;;73.53;41.25;;;;;;;;;;5050884;28;20167;-67
2022/01/05 01:18:28;;;;;;;78.90;40.22;;;;;;;;;;5050022;28;20029;-66
2022/01/05 01:20:54;;;;;;;65.60;37.83;;;;;;;;;;5051140;28;20406;-66
2022/01/05 01:23:22;;;;;;;66.32;40.70;;;;;;;;;;5051224;28;20108;-66
2022/01/05 01:25:52;;;;;;;67.70;39.03;;;;;;;;;;5052386;28;20031;-66
2022/01/05 01:28:18;;;;;;;60.13;35.10;;;;;;;;;;5055358;28;20032;-67
2022/01/05 01:30:44;;;;;;;53.35;33.88;;;;;;;;;;5054740;28;20488;-67
2022/01/05 01:33:10;;;;;;;60.80;32.53;;;;;;;;;;5053024;28;20087;-68
2022/01/05 01:35:35;;;;;;;54.90;34.15;;;;;;;;;;5054773;28;20091;-68
2022/01/05 01:38:01;;;;;;;60.50;33.75;;;;;;;;;;5055049;28;20033;-68
2022/01/05 01:40:27;;;;;;;63.90;33.55;;;;;;;;;;5054236;28;20031;-68
2022/01/05 01:42:53;;;;;;;55.30;32.33;;;;;;;;;;5054027;28;20044;-67
2022/01/05 01:45:19;;;;;;;57.47;33.50;;;;;;;;;;5053855;28;20029;-67
2022/01/05 01:47:46;;;;;;;60.55;31.65;;;;;;;;;;5054345;28;20112;-65
2022/01/05 01:50:12;;;;;;;60.88;31.55;;;;;;;;;;5054077;28;20035;-68
2022/01/05 01:52:38;;;;;;;48.25;28.98;;;;;;;;;;5054515;28;20037;-67
2022/01/05 01:55:04;;;;;;;49.60;29.30;;;;;;;;;;5054012;28;20038;-66
2022/01/05 01:57:34;;;;;;;51.00;30.25;;;;;;;;;;5053500;28;20468;-66
2022/01/05 02:00:00;;;;;;;54.40;32.20;;;;;;;;;;5054341;28;20044;-66
2022/01/05 02:02:26;;;;;;;50.15;29.88;;;;;;;;;;5054277;28;20037;-66
2022/01/05 02:04:52;;;;;;;44.33;27.30;;;;;;;;;;5053456;28;20032;-66
2022/01/05 02:07:18;;;;;;;47.15;28.08;;;;;;;;;;5053654;28;20526;-67
2022/01/05 02:09:43;;;;;;;49.10;28.00;;;;;;;;;;5053776;28;20037;-67
2022/01/05 02:12:10;;;;;;;48.80;27.65;;;;;;;;;;5053691;28;20140;-67
2022/01/05 02:14:36;;;;;;;47.58;28.45;;;;;;;;;;5054884;28;20028;-68
2022/01/05 02:17:08;;;;;;;46.13;27.48;;;;;;;;;;5054030;28;20029;-67
2022/01/05 02:19:34;;;;;;;45.63;28.15;;;;;;;;;;5068716;28;20037;-67
2022/01/05 02:22:00;;;;;;;38.13;24.13;;;;;;;;;;5052425;28;20029;-67
2022/01/05 02:24:26;;;;;;;43.08;26.02;;;;;;;;;;5053377;28;20032;-67
2022/01/05 02:26:51;;;;;;;39.60;23.73;;;;;;;;;;5051989;28;20111;-67
2022/01/05 02:29:18;;;;;;;44.35;27.30;;;;;;;;;;5051430;28;20041;-67
2022/01/05 02:31:44;;;;;;;42.17;24.92;;;;;;;;;;5031466;28;20041;-66
2022/01/05 02:34:09;;;;;;;36.08;22.50;;;;;;;;;;5015760;28;20026;-68
2022/01/05 02:36:35;;;;;;;35.15;22.40;;;;;;;;;;5019501;28;20419;-67
2022/01/05 02:39:01;;;;;;;36.70;22.52;;;;;;;;;;5033591;28;20030;-68
2022/01/05 02:41:27;;;;;;;36.92;22.88;;;;;;;;;;5032792;28;20025;-68
2022/01/05 02:43:53;;;;;;;37.75;23.08;;;;;;;;;;5032257;28;20499;-67
2022/01/05 02:46:21;;;;;;;39.72;23.75;;;;;;;;;;5033725;28;20017;-67
2022/01/05 02:48:49;;;;;;;37.90;23.13;;;;;;;;;;5032922;28;20575;-67
2022/01/05 02:51:15;;;;;;;37.97;22.83;;;;;;;;;;5033144;28;20079;-67
2022/01/05 02:53:42;;;;;;;37.17;24.10;;;;;;;;;;5013666;28;20030;-67
2022/01/05 02:56:08;;;;;;;38.67;23.55;;;;;;;;;;5013065;28;20495;-67
2022/01/05 02:58:34;;;;;;;42.30;25.05;;;;;;;;;;5013705;28;20041;-67
2022/01/05 03:01:00;;;;;;;40.20;25.90;;;;;;;;;;5013150;28;20564;-67
2022/01/05 03:03:26;;;;;;;41.78;25.30;;;;;;;;;;5012502;28;20079;-68
2022/01/05 03:05:52;;;;;;;43.17;25.63;;;;;;;;;;5011771;28;20113;-67
2022/01/05 03:08:18;;;;;;;42.42;24.83;;;;;;;;;;5012922;28;20038;-68
2022/01/05 03:10:44;;;;;;;46.08;25.00;;;;;;;;;;5013113;28;20050;-67
2022/01/05 03:13:10;;;;;;;40.38;24.08;;;;;;;;;;5012934;28;20386;-67
2022/01/05 03:15:35;;;;;;;38.78;25.60;;;;;;;;;;5012848;28;20025;-67
2022/01/05 03:18:05;;;;;;;41.13;26.73;;;;;;;;;;5012451;28;20034;-68
2022/01/05 03:20:32;;;;;;;52.13;30.48;;;;;;;;;;5013145;28;20038;-67
2022/01/05 03:22:58;;;;;;;57.53;32.25;;;;;;;;;;5013237;28;20034;-68
2022/01/05 03:25:24;;;;;;;49.30;31.20;;;;;;;;;;5012225;28;20492;-67
2022/01/05 03:27:52;;;;;;;49.65;30.98;;;;;;;;;;5012505;28;20041;-67
2022/01/05 03:30:23;;;;;;;54.65;31.90;;;;;;;;;;5012690;28;20362;-67
2022/01/05 03:35:26;;;;;;;49.70;30.67;;;;;;;;;;5012975;28;20030;-67
2022/01/05 03:37:51;;;;;;;51.35;30.48;;;;;;;;;;5012553;28;20033;-67
2022/01/05 03:40:18;;;;;;;48.72;30.88;;;;;;;;;;5011611;28;20042;-67
2022/01/05 03:42:43;;;;;;;46.80;29.27;;;;;;;;;;5012810;28;20056;-66
2022/01/05 03:45:09;;;;;;;54.65;30.73;;;;;;;;;;5012404;28;20045;-66
2022/01/05 03:47:35;;;;;;;52.78;28.63;;;;;;;;;;5011624;28;20022;-67
2022/01/05 03:50:01;;;;;;;53.92;30.65;;;;;;;;;;5010906;28;20132;-66
2022/01/05 03:52:27;;;;;;;44.20;27.77;;;;;;;;;;5011562;28;20117;-66
2022/01/05 03:54:53;;;;;;;43.25;27.60;;;;;;;;;;5024952;28;20033;-68
2022/01/05 03:57:18;;;;;;;45.47;27.25;;;;;;;;;;5031163;28;20074;-67
2022/01/05 03:59:44;;;;;;;49.33;28.48;;;;;;;;;;5031823;28;20144;-67
2022/01/05 04:02:10;;;;;;;52.15;29.30;;;;;;;;;;5031561;28;20025;-67
2022/01/05 04:04:36;;;;;;;60.78;29.02;;;;;;;;;;5031034;28;20037;-67
2022/01/05 04:07:01;;;;;;;52.97;28.52;;;;;;;;;;5031746;28;20029;-68
2022/01/05 04:09:27;;;;;;;58.05;29.95;;;;;;;;;;5031106;28;20408;-68
2022/01/05 04:11:53;;;;;;;53.53;29.70;;;;;;;;;;5031781;28;20033;-67
2022/01/05 04:14:19;;;;;;;50.50;29.77;;;;;;;;;;5031468;28;20033;-67
2022/01/05 04:16:44;;;;;;;44.58;27.30;;;;;;;;;;5031135;28;20033;-66
2022/01/05 04:19:10;;;;;;;43.38;27.08;;;;;;;;;;5031259;28;20042;-66
2022/01/05 04:21:36;;;;;;;47.40;29.20;;;;;;;;;;5030900;28;20029;-66
2022/01/05 04:24:02;;;;;;;49.03;28.80;;;;;;;;;;5014245;28;20408;-67
2022/01/05 04:26:28;;;;;;;47.15;28.45;;;;;;;;;;5011618;28;20098;-67
2022/01/05 04:28:53;;;;;;;47.90;28.67;;;;;;;;;;5011961;28;20382;-67
2022/01/05 04:31:19;;;;;;;47.65;27.70;;;;;;;;;;5010880;28;20505;-66
2022/01/05 04:33:45;;;;;;;50.67;28.02;;;;;;;;;;5011823;28;20038;-67
2022/01/05 04:36:11;;;;;;;44.50;26.05;;;;;;;;;;5011696;28;20458;-67
2022/01/05 04:38:36;;;;;;;46.47;25.20;;;;;;;;;;5011517;28;20053;-66
2022/01/05 04:41:02;;;;;;;50.88;29.27;;;;;;;;;;5011399;28;20072;-66
2022/01/05 04:43:28;;;;;;;46.60;26.30;;;;;;;;;;5011086;28;20107;-67
2022/01/05 04:45:54;;;;;;;43.25;25.20;;;;;;;;;;5010815;28;20373;-67
2022/01/05 04:48:20;;;;;;;40.20;26.88;;;;;;;;;;5011447;28;20084;-68
2022/01/05 04:50:45;;;;;;;46.13;27.77;;;;;;;;;;5011124;28;20044;-66
2022/01/05 04:53:13;;;;;;;51.63;27.00;;;;;;;;;;5010227;28;20088;-65
2022/01/05 04:55:42;;;;;;;52.88;27.08;;;;;;;;;;5014404;28;20028;-66
2022/01/05 04:58:08;;;;;;;50.72;27.08;;;;;;;;;;5030784;28;20026;-67
2022/01/05 05:00:34;;;;;;;65.65;30.58;;;;;;;;;;5027245;28;20034;-66
2022/01/05 05:03:00;;;;;;;50.78;27.85;;;;;;;;;;5013648;28;20030;-68
2022/01/05 05:05:26;;;;;;;41.25;24.75;;;;;;;;;;5022874;28;20030;-68
2022/01/05 05:07:52;;;;;;;43.45;26.20;;;;;;;;;;5015072;28;20061;-68
2022/01/05 05:10:18;;;;;;;72.15;27.67;;;;;;;;;;5016105;28;20060;-67
2022/01/05 05:12:44;;;;;;;43.33;25.27;;;;;;;;;;5016572;28;20037;-66
2022/01/05 05:15:10;;;;;;;45.95;23.83;;;;;;;;;;5016319;28;20033;-67
2022/01/05 05:17:36;;;;;;;45.47;24.50;;;;;;;;;;5023902;28;20500;-67
2022/01/05 05:20:03;;;;;;;46.72;24.58;;;;;;;;;;5017204;28;20503;-68
2022/01/05 05:22:28;;;;;;;37.08;22.13;;;;;;;;;;5015803;28;20499;-67
2022/01/05 05:24:54;;;;;;;38.47;23.10;;;;;;;;;;5016080;28;20022;-67
2022/01/05 05:27:20;;;;;;;39.03;24.40;;;;;;;;;;5016076;28;20084;-66
2022/01/05 05:29:46;;;;;;;43.70;25.70;;;;;;;;;;5015939;28;20053;-67
2022/01/05 05:32:12;;;;;;;57.80;28.65;;;;;;;;;;5015779;28;20496;-66
2022/01/05 05:34:37;;;;;;;52.22;27.98;;;;;;;;;;5015225;28;20121;-66
2022/01/05 05:37:03;;;;;;;63.22;33.53;;;;;;;;;;5015429;28;20034;-67
2022/01/05 05:39:29;;;;;;;58.78;30.80;;;;;;;;;;5015663;28;20480;-66
2022/01/05 05:41:55;;;;;;;53.75;29.15;;;;;;;;;;5018215;28;20032;-67
2022/01/05 05:44:20;;;;;;;58.13;29.85;;;;;;;;;;5018013;28;20097;-66
2022/01/05 05:46:47;;;;;;;42.97;26.70;;;;;;;;;;5015324;28;20041;-67
2022/01/05 05:49:13;;;;;;;45.28;27.75;;;;;;;;;;5015003;28;20022;-68
2022/01/05 05:51:39;;;;;;;43.15;26.55;;;;;;;;;;5015225;28;20042;-67
2022/01/05 05:54:05;;;;;;;52.63;27.80;;;;;;;;;;5015228;28;20145;-67
2022/01/05 05:56:31;;;;;;;45.25;26.95;;;;;;;;;;5015446;28;20103;-68
2022/01/05 05:58:56;;;;;;;48.22;25.30;;;;;;;;;;5015275;28;20026;-67
2022/01/05 06:01:22;;;;;;;43.53;26.02;;;;;;;;;;5014679;28;20037;-67
2022/01/05 06:03:48;;;;;;;46.85;24.38;;;;;;;;;;5014803;28;20032;-66
2022/01/05 06:06:14;;;;;;;41.85;25.08;;;;;;;;;;5014948;28;20036;-67
2022/01/05 06:08:39;;;;;;;48.88;24.60;;;;;;;;;;5014465;28;20022;-67
2022/01/05 06:11:06;;;;;;;38.38;24.20;;;;;;;;;;5014187;28;20034;-68
2022/01/05 06:13:32;;;;;;;42.30;24.88;;;;;;;;;;5013938;28;20468;-67
2022/01/05 06:15:58;;;;;;;41.53;22.60;;;;;;;;;;5014797;28;20050;-67
2022/01/05 06:18:24;;;;;;;35.47;22.52;;;;;;;;;;5013534;28;20028;-68
2022/01/05 06:20:50;;;;;;;32.15;19.95;;;;;;;;;;5014344;28;20073;-67
2022/01/05 06:23:16;;;;;;;32.70;19.85;;;;;;;;;;5014605;28;20029;-68
2022/01/05 06:25:42;;;;;;;40.63;21.80;;;;;;;;;;5014703;28;20396;-67
2022/01/05 06:28:11;;;;;;;32.72;18.40;;;;;;;;;;5014733;28;20365;-71
2022/01/05 06:30:41;;;;;;;32.58;17.73;;;;;;;;;;5014492;28;20096;-74
2022/01/05 06:33:07;;;;;;;32.05;18.45;;;;;;;;;;5013114;28;20052;-74
2022/01/05 06:35:34;;;;;;;29.35;18.83;;;;;;;;;;5014199;28;20338;-74
2022/01/05 06:38:00;;;;;;;33.67;18.50;;;;;;;;;;5014237;28;20097;-74
2022/01/05 06:40:26;;;;;;;33.72;19.63;;;;;;;;;;5014104;28;20041;-76
2022/01/05 06:42:52;;;;;;;36.42;18.95;;;;;;;;;;5014550;28;20037;-73
2022/01/05 06:45:18;;;;;;;35.00;20.85;;;;;;;;;;5013069;28;20477;-73
2022/01/05 06:47:44;;;;;;;40.08;22.40;;;;;;;;;;5014443;28;20030;-75
2022/01/05 06:50:10;;;;;;;35.10;21.52;;;;;;;;;;5020772;28;20469;-72
2022/01/05 06:52:37;;;;;;;32.15;20.23;;;;;;;;;;5019830;28;20018;-71
2022/01/05 06:55:04;;;;;;;35.90;22.17;;;;;;;;;;5022838;28;20385;-73
2022/01/05 06:57:30;;;;;;;34.40;22.25;;;;;;;;;;5013766;28;20164;-72
2022/01/05 06:59:56;;;;;;;36.38;22.15;;;;;;;;;;5014097;28;20440;-71
2022/01/05 07:02:22;;;;;;;44.38;23.70;;;;;;;;;;5014202;28;20497;-74
2022/01/05 07:04:48;;;;;;;38.95;24.38;;;;;;;;;;5013555;28;20044;-72
2022/01/05 07:07:14;;;;;;;50.97;26.83;;;;;;;;;;5013394;28;20030;-71
2022/01/05 07:09:39;;;;;;;43.08;23.58;;;;;;;;;;5014092;28;20033;-71
2022/01/05 07:12:06;;;;;;;37.30;22.02;;;;;;;;;;5013734;28;20053;-71
2022/01/05 07:14:31;;;;;;;42.53;23.52;;;;;;;;;;5013737;28;20041;-71
2022/01/05 07:16:57;;;;;;;56.30;26.80;;;;;;;;;;5015838;28;20361;-72
2022/01/05 07:19:23;;;;;;;49.88;27.90;;;;;;;;;;5023025;28;20103;-70
2022/01/05 07:21:49;;;;;;;47.22;26.35;;;;;;;;;;5016665;28;20022;-70
2022/01/05 07:24:17;;;;;;;45.72;25.38;;;;;;;;;;5024198;28;20041;-69
2022/01/05 07:26:44;;;;;;;40.83;22.77;;;;;;;;;;5032205;28;20029;-70
2022/01/05 07:29:12;;;;;;;51.38;24.50;;;;;;;;;;5025732;28;20033;-70
2022/01/05 07:31:39;;;;;;;37.53;23.40;;;;;;;;;;5019695;28;20048;-69
2022/01/05 07:34:04;;;;;;;38.63;24.08;;;;;;;;;;5031990;28;20033;-72
2022/01/05 07:36:30;;;;;;;37.35;21.75;;;;;;;;;;5025620;28;20445;-69
2022/01/05 07:38:56;;;;;;;39.42;21.75;;;;;;;;;;5029089;28;20033;-72
2022/01/05 07:41:22;;;;;;;31.15;21.25;;;;;;;;;;5019613;28;20434;-72
2022/01/05 07:43:48;;;;;;;40.13;21.70;;;;;;;;;;5012680;28;20092;-71
2022/01/05 07:46:13;;;;;;;43.72;23.67;;;;;;;;;;5013056;28;20025;-70
2022/01/05 07:48:39;;;;;;;39.22;24.00;;;;;;;;;;5013176;28;20523;-70
2022/01/05 07:51:05;;;;;;;41.92;23.60;;;;;;;;;;5015270;28;20037;-71
2022/01/05 07:53:31;;;;;;;35.33;23.70;;;;;;;;;;5026108;28;20036;-71
2022/01/05 07:55:57;;;;;;;48.75;24.83;;;;;;;;;;5022755;28;20030;-72
2022/01/05 07:58:23;;;;;;;45.17;25.40;;;;;;;;;;5011323;28;20040;-72
2022/01/05 08:00:50;;;;;;;36.42;22.65;;;;;;;;;;5010449;28;20053;-72
2022/01/05 08:03:16;;;;;;;33.85;20.85;;;;;;;;;;5008854;28;20109;-73
2022/01/05 08:05:41;;;;;;;39.53;24.70;;;;;;;;;;5010722;28;20245;-70
2022/01/05 08:08:07;;;;;;;45.50;30.27;;;;;;;;;;5010277;28;20117;-72
2022/01/05 08:10:33;;;;;;;38.35;24.27;;;;;;;;;;5011806;28;20037;-75
2022/01/05 08:12:59;;;;;;;37.83;25.58;;;;;;;;;;5012197;28;20261;-72
2022/01/05 08:15:25;;;;;;;38.47;25.25;;;;;;;;;;5020918;28;20021;-72
2022/01/05 08:17:51;;;;;;;34.40;23.23;;;;;;;;;;5012366;28;20038;-69
2022/01/05 08:20:16;;;;;;;34.53;23.30;;;;;;;;;;5020451;28;20041;-71
2022/01/05 08:22:44;;;;;;;29.00;21.13;;;;;;;;;;5032340;28;20083;-71
2022/01/05 08:25:16;;;;;;;34.63;23.05;;;;;;;;;;5016744;28;20021;-70
2022/01/05 08:27:46;;;;;;;31.65;20.65;;;;;;;;;;5012516;28;20026;-72
2022/01/05 08:30:16;;;;;;;34.17;20.88;;;;;;;;;;5011377;28;20124;-70
2022/01/05 08:32:44;;;;;;;35.83;21.40;;;;;;;;;;5021913;28;20029;-71
2022/01/05 08:35:11;;;;;;;34.65;21.85;;;;;;;;;;5031367;28;20485;-70
2022/01/05 08:37:39;;;;;;;33.60;20.48;;;;;;;;;;5030619;28;20038;-69
2022/01/05 08:40:05;;;;;;;31.50;20.33;;;;;;;;;;5031927;28;20033;-68
2022/01/05 08:42:31;;;;;;;30.50;19.77;;;;;;;;;;5031825;28;20029;-70
2022/01/05 08:44:59;;;;;;;33.75;20.15;;;;;;;;;;5031454;28;20021;-71
2022/01/05 08:47:24;;;;;;;31.77;20.27;;;;;;;;;;5011919;28;20053;-71
2022/01/05 08:49:50;;;;;;;37.83;23.02;;;;;;;;;;5012075;28;20033;-71
2022/01/05 08:52:16;;;;;;;37.75;21.85;;;;;;;;;;5012362;28;20073;-71
2022/01/05 08:54:42;;;;;;;48.28;21.00;;;;;;;;;;5012214;28;20476;-71
2022/01/05 08:57:08;;;;;;;28.70;19.00;;;;;;;;;;5011881;28;20034;-71
2022/01/05 09:06:55;;;;;;;40.72;21.00;;;;;;;;;;5012289;28;20071;-71
2022/01/05 09:09:21;;;;;;;32.97;19.67;;;;;;;;;;5012004;28;20382;-72
2022/01/05 09:11:48;;;;;;;28.35;19.02;;;;;;;;;;5010585;28;20128;-71
2022/01/05 09:14:14;;;;;;;30.45;19.27;;;;;;;;;;5011686;28;20514;-72
2022/01/05 09:16:39;;;;;;;27.60;18.00;;;;;;;;;;5011989;28;20026;-72
2022/01/05 09:19:06;;;;;;;27.52;18.30;;;;;;;;;;5011984;28;20541;-72
2022/01/05 09:21:32;;;;;;;31.98;17.70;;;;;;;;;;5011579;28;20109;-73
2022/01/05 09:23:58;;;;;;;24.60;16.83;;;;;;;;;;5010497;28;20038;-74
2022/01/05 09:26:24;;;;;;;28.83;17.45;;;;;;;;;;5010386;28;20029;-71
2022/01/05 09:28:50;;;;;;;27.60;18.10;;;;;;;;;;5011507;28;20029;-71
2022/01/05 09:31:16;;;;;;;25.63;17.42;;;;;;;;;;5011681;28;20045;-72
2022/01/05 09:33:42;;;;;;;29.45;16.70;;;;;;;;;;5011754;28;20066;-71
2022/01/05 09:36:16;;;;;;;28.02;16.05;;;;;;;;;;5011705;28;20040;-72
2022/01/05 09:44:06;;;;;;;24.90;15.65;;;;;;;;;;5012001;28;20037;-73
2022/01/05 09:46:42;;;;;;;21.48;14.65;;;;;;;;;;5012693;28;20125;-73
2022/01/05 09:49:31;;;;;;;21.77;15.07;;;;;;;;;;5015234;28;20422;-74
2022/01/05 09:52:02;;;;;;;20.83;14.98;;;;;;;;;;5015021;28;20068;-72
2022/01/05 09:54:29;;;;;;;31.67;16.55;;;;;;;;;;5015157;28;20044;-73
2022/01/05 09:56:55;;;;;;;24.27;16.13;;;;;;;;;;5014316;28;20094;-72
2022/01/05 09:59:21;;;;;;;27.17;17.15;;;;;;;;;;5014621;28;20116;-74
2022/01/05 10:01:47;;;;;;;23.98;16.30;;;;;;;;;;5017336;28;20421;-73
2022/01/05 10:04:13;;;;;;;25.90;16.15;;;;;;;;;;5034076;28;20171;-72
2022/01/05 10:06:40;;;;;;;25.85;16.77;;;;;;;;;;5033333;28;20104;-73
2022/01/05 10:09:07;;;;;;;25.63;15.75;;;;;;;;;;5034561;28;20384;-73
2022/01/05 10:11:34;;;;;;;24.15;16.50;;;;;;;;;;5034430;28;20044;-73
2022/01/05 10:14:01;;;;;;;25.15;17.75;;;;;;;;;;5034503;28;20025;-70
2022/01/05 10:16:26;;;;;;;28.13;17.75;;;;;;;;;;5034248;28;20026;-71
2022/01/05 10:18:52;;;;;;;29.95;19.17;;;;;;;;;;5032712;28;20433;-72
2022/01/05 10:21:18;;;;;;;36.85;22.60;;;;;;;;;;5033057;28;20388;-71
2022/01/05 10:23:50;;;;;;;35.20;23.63;;;;;;;;;;5034486;28;20047;-70
2022/01/05 10:26:36;;;;;;;37.13;24.42;;;;;;;;;;5033605;28;20284;-71
2022/01/05 10:29:04;;;;;;;35.53;24.15;;;;;;;;;;5032017;28;20109;-72
2022/01/05 10:31:36;;;;;;;34.58;25.75;;;;;;;;;;5028286;28;20116;-71
2022/01/05 10:34:21;;;;;;;41.60;26.58;;;;;;;;;;5027882;28;20033;-70
2022/01/05 10:36:49;;;;;;;36.40;25.23;;;;;;;;;;5033524;28;20037;-71
2022/01/05 10:39:18;;;;;;;34.33;25.15;;;;;;;;;;5027767;28;20145;-70
2022/01/05 10:41:46;;;;;;;42.70;26.10;;;;;;;;;;5013334;28;20049;-70
2022/01/05 10:44:23;;;;;;;39.88;24.77;;;;;;;;;;5017219;28;20044;-72
2022/01/05 10:46:56;;;;;;;32.95;24.08;;;;;;;;;;5011686;28;20049;-71
2022/01/05 10:49:28;;;;;;;39.80;23.98;;;;;;;;;;5022653;28;20057;-72
2022/01/05 10:51:56;;;;;;;35.08;22.92;;;;;;;;;;5030564;28;20038;-71
2022/01/05 10:54:25;;;;;;;34.58;23.80;;;;;;;;;;5031625;28;20032;-73
2022/01/05 10:56:52;;;;;;;34.40;21.50;;;;;;;;;;5031291;28;20467;-72
2022/01/05 10:59:28;;;;;;;34.10;22.20;;;;;;;;;;5030936;28;20495;-70
2022/01/05 11:01:55;;;;;;;32.85;22.85;;;;;;;;;;5031913;28;20077;-71
2022/01/05 11:04:23;;;;;;;36.40;21.98;;;;;;;;;;5031752;28;20053;-70
2022/01/05 11:07:03;;;;;;;31.27;21.75;;;;;;;;;;5032269;28;20076;-73
2022/01/05 11:09:31;;;;;;;32.78;21.95;;;;;;;;;;5032393;28;20030;-71
2022/01/05 11:11:58;;;;;;;37.38;22.00;;;;;;;;;;5015335;28;20485;-72
2022/01/05 11:14:33;;;;;;;30.98;20.73;;;;;;;;;;5012375;28;20048;-71
2022/01/05 11:17:01;;;;;;;37.20;21.73;;;;;;;;;;5012488;28;20041;-72
2022/01/05 11:19:32;;;;;;;36.40;21.95;;;;;;;;;;5011790;28;20396;-72
2022/01/05 11:22:15;;;;;;;34.05;22.42;;;;;;;;;;5010846;28;20148;-72
2022/01/05 11:24:46;;;;;;;31.40;22.65;;;;;;;;;;5013288;28;20030;-71
2022/01/05 11:27:27;;;;;;;34.28;21.70;;;;;;;;;;5016926;28;20113;-70
2022/01/05 11:29:55;;;;;;;32.97;22.02;;;;;;;;;;5031279;28;20049;-69
2022/01/05 11:32:26;;;;;;;32.17;20.77;;;;;;;;;;5027554;28;20034;-71
2022/01/05 11:34:52;;;;;;;32.83;22.42;;;;;;;;;;5015524;28;20034;-73
2022/01/05 11:37:18;;;;;;;33.35;23.25;;;;;;;;;;5021415;28;20036;-71
2022/01/05 11:39:48;;;;;;;31.13;21.35;;;;;;;;;;5008448;28;20036;-71
2022/01/05 11:42:18;;;;;;;31.27;21.45;;;;;;;;;;5024775;28;20022;-70
2022/01/05 11:44:48;;;;;;;31.65;22.30;;;;;;;;;;5032228;28;20030;-70
2022/01/05 11:47:29;;;;;;;30.58;22.92;;;;;;;;;;5031682;28;20041;-70
2022/01/05 11:50:13;;;;;;;31.58;22.15;;;;;;;;;;5030940;28;20033;-72
2022/01/05 11:53:06;;;;;;;33.42;21.38;;;;;;;;;;5026419;28;20076;-71
2022/01/05 11:55:56;;;;;;;40.35;19.70;;;;;;;;;;5009085;28;20509;-70
2022/01/05 11:58:26;;;;;;;32.55;22.05;;;;;;;;;;5025819;28;20041;-72
2022/01/05 12:01:17;;;;;;;32.15;21.02;;;;;;;;;;5030330;28;20033;-72
2022/01/05 12:03:59;;;;;;;36.78;20.88;;;;;;;;;;5031888;28;20080;-74
2022/01/05 12:06:44;;;;;;;30.25;19.58;;;;;;;;;;5032100;28;20045;-71
2022/01/05 12:09:23;;;;;;;31.35;19.85;;;;;;;;;;5019606;28;20056;-72
2022/01/05 12:11:49;;;;;;;31.15;18.90;;;;;;;;;;5011877;28;20071;-72
2022/01/05 12:14:21;;;;;;;29.75;16.20;;;;;;;;;;5012218;28;20022;-72
2022/01/05 12:17:02;;;;;;;24.27;15.15;;;;;;;;;;5012571;28;20080;-71
2022/01/05 12:19:34;;;;;;;21.83;14.32;;;;;;;;;;5030825;28;20029;-71
2022/01/05 12:22:21;;;;;;;22.38;15.00;;;;;;;;;;5032325;28;20068;-70
2022/01/05 12:24:56;;;;;;;27.58;13.27;;;;;;;;;;5032193;28;20104;-70
2022/01/05 12:27:32;;;;;;;18.98;11.30;;;;;;;;;;5031448;28;20030;-72
2022/01/05 12:30:19;;;;;;;18.67;11.38;;;;;;;;;;5032248;28;20056;-70
2022/01/05 12:32:47;;;;;;;19.75;12.57;;;;;;;;;;5031945;28;20121;-73
2022/01/05 12:35:18;;;;;;;28.55;16.30;;;;;;;;;;5031075;28;20106;-71
2022/01/05 12:38:04;;;;;;;16.70;10.73;;;;;;;;;;5022328;28;20041;-71
2022/01/05 12:40:34;;;;;;;10.05;8.00;;;;;;;;;;5012057;28;20164;-70
2022/01/05 12:43:06;;;;;;;14.05;7.85;;;;;;;;;;5011696;28;20038;-69
2022/01/05 12:45:52;;;;;;;15.73;8.05;;;;;;;;;;5010641;28;20045;-70
2022/01/05 12:48:33;;;;;;;12.60;8.40;;;;;;;;;;5011688;28;20060;-70
2022/01/05 12:51:14;;;;;;;11.50;8.35;;;;;;;;;;5012108;28;20031;-70
2022/01/05 12:53:49;;;;;;;16.35;9.93;;;;;;;;;;5011986;28;20041;-70
2022/01/05 12:56:23;;;;;;;14.18;8.73;;;;;;;;;;5012000;28;20034;-71
2022/01/05 12:58:51;;;;;;;11.73;8.23;;;;;;;;;;5011908;28;20034;-72
2022/01/05 13:01:19;;;;;;;18.92;11.05;;;;;;;;;;5011643;28;20025;-71
2022/01/05 13:03:45;;;;;;;13.30;8.60;;;;;;;;;;5012092;28;20447;-70
2022/01/05 13:06:23;;;;;;;13.00;9.18;;;;;;;;;;5011758;28;20018;-70
2022/01/05 13:08:52;;;;;;;12.48;8.70;;;;;;;;;;5011693;28;20110;-69
2022/01/05 13:11:40;;;;;;;16.33;9.48;;;;;;;;;;5011150;28;20027;-71
2022/01/05 13:14:20;;;;;;;13.35;8.48;;;;;;;;;;5012182;28;20338;-71
2022/01/05 13:16:55;;;;;;;14.00;9.07;;;;;;;;;;5011623;28;20030;-72
2022/01/05 13:19:29;;;;;;;17.00;8.57;;;;;;;;;;5011980;28;20053;-71
2022/01/05 13:21:57;;;;;;;12.85;8.60;;;;;;;;;;5014236;28;20401;-71
2022/01/05 13:24:26;;;;;;;14.98;8.45;;;;;;;;;;5015805;28;20575;-70
2022/01/05 13:27:04;;;;;;;18.27;10.10;;;;;;;;;;5016216;28;20541;-71
2022/01/05 13:29:32;;;;;;;23.23;11.80;;;;;;;;;;5013595;28;20037;-72
2022/01/05 13:32:00;;;;;;;17.02;10.02;;;;;;;;;;5015105;28;20037;-72
2022/01/05 13:34:32;;;;;;;20.45;12.77;;;;;;;;;;5015677;28;20034;-70
2022/01/05 13:36:58;;;;;;;20.17;12.18;;;;;;;;;;5015454;28;20050;-71
2022/01/05 13:39:56;;;;;;;25.20;12.25;;;;;;;;;;5015744;28;20388;-70
2022/01/05 13:42:34;;;;;;;17.77;12.55;;;;;;;;;;5011216;28;20477;-70
2022/01/05 13:45:01;;;;;;;18.75;11.77;;;;;;;;;;5016006;28;20032;-70
2022/01/05 13:47:27;;;;;;;16.58;10.57;;;;;;;;;;5015016;28;20192;-71
2022/01/05 13:50:15;;;;;;;22.33;11.32;;;;;;;;;;5020206;28;20033;-72
2022/01/05 13:52:44;;;;;;;24.40;14.13;;;;;;;;;;5034897;28;20388;-69
2022/01/05 13:55:24;;;;;;;23.83;11.70;;;;;;;;;;5035178;28;20017;-69
2022/01/05 13:58:03;;;;;;;27.73;13.85;;;;;;;;;;5034512;28;20041;-71
2022/01/05 14:00:28;;;;;;;27.23;16.52;;;;;;;;;;5035112;28;20041;-69
2022/01/05 14:02:54;;;;;;;23.27;15.23;;;;;;;;;;5035009;28;20051;-69
2022/01/05 14:05:20;;;;;;;22.95;15.63;;;;;;;;;;5034950;28;20061;-70
2022/01/05 14:07:46;;;;;;;30.23;16.92;;;;;;;;;;5034562;28;20461;-69
2022/01/05 14:10:16;;;;;;;31.67;17.58;;;;;;;;;;5033486;28;20040;-69
2022/01/05 14:12:48;;;;;;;30.15;17.00;;;;;;;;;;5034551;28;20104;-70
2022/01/05 14:15:16;;;;;;;22.67;14.68;;;;;;;;;;5034990;28;20397;-71
2022/01/05 14:18:05;;;;;;;30.00;15.95;;;;;;;;;;5034353;28;20026;-69
2022/01/05 14:20:33;;;;;;;35.10;20.92;;;;;;;;;;5034415;28;20030;-69
2022/01/05 14:23:09;;;;;;;33.60;19.70;;;;;;;;;;5035030;28;20400;-70
2022/01/05 14:25:49;;;;;;;33.58;20.65;;;;;;;;;;5034726;28;20110;-70
2022/01/05 14:28:30;;;;;;;34.08;19.23;;;;;;;;;;5034805;28;20037;-69
2022/01/05 14:31:14;;;;;;;30.50;18.17;;;;;;;;;;5034330;28;20072;-69
2022/01/05 14:33:52;;;;;;;32.70;19.15;;;;;;;;;;5032233;28;20049;-70
2022/01/05 14:36:38;;;;;;;40.03;20.73;;;;;;;;;;5034659;28;20447;-71
2022/01/05 14:39:08;;;;;;;32.88;19.88;;;;;;;;;;5034593;28;20068;-70
2022/01/05 14:41:38;;;;;;;31.27;20.13;;;;;;;;;;5034426;28;20116;-70